KMQI

Dare County Regional Airport

Manteo, North Carolina, USA
METAR KMQI 172115Z AUTO 08006KT 7SM SCT006 BKN018 OVC027 08/08 A3014 RMK AO2 T00810077
Observed Flight Rules
Feb-17 @ 21:15 UTC (18 minutes ago) Marginal Visual Flight Rules
Wind Visibility Clouds
80° at 6 knots 7 miles
  • Scattered at 600' AGL
  • Broken at 1,800' AGL
  • Overcast at 2,700' AGL
Temperatures Readings
Current 8°C / 46°F
Dewpoint 8°C / 46°F
Humidity 100%
Altimeter 30.14" Hg
Pressure 1021 hPa
Elevation 4
METAR KMQI 172115Z AUTO 08006KT 7SM SCT006 BKN018 OVC027 08/08 A3014 RMK AO2 T00810077
Observed Flight Rules
Feb-17 @ 21:15 UTC
(18 minutes ago)
MVFR
Wind Visibility
80° at 6 knots 7 miles
Clouds
  • Scattered at 600' AGL
  • Broken at 1,800' AGL
  • Overcast at 2,700' AGL
Temperature Dewpoint
8°C / 46°F 8°C / 46°F
Humidity Altimeter Pressure
100% 30.14" Hg 1021 hPa